Archival Weather

Longyear

Longyear, Svalbard (ENSB)

Report from: Tuesday, September 19, 2023 12:50 AM UTC
Current time: Sunday, July 14, 2024 12:45 AM UTC

Current weather – Weather history – Daily summaries
Weather forecast

Temperature-4.0°C (24.8°F)
Wind chill-7.8°C (17.9°F)
Dew point-8.0°C (17.6°F)
Winds 5 kts (2.6 m/s, 5.8 mph) East-Southeast (120°)
Visibility6.2 mi. (10 km)
Clouds Few clouds 3,000 ft. (914 m)
Altimeter30.06 in.Hg (1018 mB)
Relative humidity74 %
Density altitude-2,451 ft. (-747 m)
Flight conditions Visual Meteorological Conditions
Raw dataENSB 190050Z 12005KT 9999 FEW030 M04/M08 Q1018 RMK WIND 1400FT 04008KT
An error has occurred. This application may no longer respond until reloaded. Reload 🗙